sensor_id;sensor_type;location;lat;lon;timestamp;pressure;altitude;pressure_sealevel;temperature;humidity
10946;BME280;5525;42.648;23.368;2022-09-21T00:01:03;94796.69;;;8.26;100.00
10946;BME280;5525;42.648;23.368;2022-09-21T00:03:30;94799.94;;;8.01;100.00
10946;BME280;5525;42.648;23.368;2022-09-21T00:06:01;94795.13;;;7.90;100.00
10946;BME280;5525;42.648;23.368;2022-09-21T00:08:30;94787.97;;;7.85;100.00
10946;BME280;5525;42.648;23.368;2022-09-21T00:10:57;94792.44;;;8.12;100.00
10946;BME280;5525;42.648;23.368;2022-09-21T00:13:24;94803.56;;;8.19;100.00
10946;BME280;5525;42.648;23.368;2022-09-21T00:15:53;94767.22;;;7.86;100.00
10946;BME280;5525;42.648;23.368;2022-09-21T00:18:20;94809.53;;;7.94;100.00
10946;BME280;5525;42.648;23.368;2022-09-21T00:20:47;94776.16;;;7.73;100.00
10946;BME280;5525;42.648;23.368;2022-09-21T00:23:14;94808.41;;;8.08;100.00
10946;BME280;5525;42.648;23.368;2022-09-21T00:25:42;94813.34;;;8.15;100.00
10946;BME280;5525;42.648;23.368;2022-09-21T00:28:09;94814.69;;;8.04;100.00
10946;BME280;5525;42.648;23.368;2022-09-21T00:30:37;94810.06;;;7.82;100.00
10946;BME280;5525;42.648;23.368;2022-09-21T00:33:04;94787.97;;;7.85;100.00
10946;BME280;5525;42.648;23.368;2022-09-21T00:35:31;94779.59;;;7.87;100.00
10946;BME280;5525;42.648;23.368;2022-09-21T00:38:00;94798.47;;;7.95;100.00
10946;BME280;5525;42.648;23.368;2022-09-21T00:40:27;94805.81;;;8.03;100.00
10946;BME280;5525;42.648;23.368;2022-09-21T00:43:10;94791.88;;;7.79;100.00
10946;BME280;5525;42.648;23.368;2022-09-21T00:45:37;94738.00;;;7.35;100.00
10946;BME280;5525;42.648;23.368;2022-09-21T00:48:04;94764.94;;;7.57;100.00
10946;BME280;5525;42.648;23.368;2022-09-21T00:50:32;94750.16;;;7.33;100.00
10946;BME280;5525;42.648;23.368;2022-09-21T00:52:59;94739.69;;;7.45;100.00
10946;BME280;5525;42.648;23.368;2022-09-21T00:55:30;94797.47;;;7.56;100.00
10946;BME280;5525;42.648;23.368;2022-09-21T00:58:02;94798.28;;;7.43;100.00
10946;BME280;5525;42.648;23.368;2022-09-21T01:00:32;94798.50;;;7.46;100.00
10946;BME280;5525;42.648;23.368;2022-09-21T01:02:59;94731.50;;;7.01;100.00
10946;BME280;5525;42.648;23.368;2022-09-21T01:05:26;94766.78;;;7.08;100.00
10946;BME280;5525;42.648;23.368;2022-09-21T01:07:55;94799.28;;;7.47;100.00
10946;BME280;5525;42.648;23.368;2022-09-21T01:10:23;94796.19;;;7.40;100.00
10946;BME280;5525;42.648;23.368;2022-09-21T01:13:12;94797.09;;;7.35;100.00
10946;BME280;5525;42.648;23.368;2022-09-21T01:15:48;94792.50;;;7.49;100.00
10946;BME280;5525;42.648;23.368;2022-09-21T01:18:20;94797.69;;;7.46;100.00
10946;BME280;5525;42.648;23.368;2022-09-21T01:21:07;94787.84;;;7.41;100.00
10946;BME280;5525;42.648;23.368;2022-09-21T01:26:35;94802.88;;;7.15;100.00
10946;BME280;5525;42.648;23.368;2022-09-21T01:29:16;94796.31;;;6.94;100.00
10946;BME280;5525;42.648;23.368;2022-09-21T01:31:49;94785.16;;;6.73;100.00
10946;BME280;5525;42.648;23.368;2022-09-21T01:34:23;94794.50;;;6.62;100.00
10946;BME280;5525;42.648;23.368;2022-09-21T01:36:54;94765.97;;;6.53;100.00
10946;BME280;5525;42.648;23.368;2022-09-21T01:39:23;94775.16;;;6.79;100.00
10946;BME280;5525;42.648;23.368;2022-09-21T01:41:52;94783.59;;;6.86;100.00
10946;BME280;5525;42.648;23.368;2022-09-21T01:44:24;94776.13;;;6.83;100.00
10946;BME280;5525;42.648;23.368;2022-09-21T01:46:55;94778.53;;;6.84;100.00
10946;BME280;5525;42.648;23.368;2022-09-21T01:49:25;94784.81;;;7.07;100.00
10946;BME280;5525;42.648;23.368;2022-09-21T01:51:56;94773.16;;;7.12;100.00
10946;BME280;5525;42.648;23.368;2022-09-21T01:54:29;94780.09;;;7.26;100.00
10946;BME280;5525;42.648;23.368;2022-09-21T01:57:01;94748.50;;;7.10;100.00
10946;BME280;5525;42.648;23.368;2022-09-21T01:59:37;94705.25;;;6.43;100.00
10946;BME280;5525;42.648;23.368;2022-09-21T02:02:11;94762.94;;;6.86;100.00
10946;BME280;5525;42.648;23.368;2022-09-21T02:04:39;94763.22;;;6.71;100.00
10946;BME280;5525;42.648;23.368;2022-09-21T02:07:07;94781.19;;;6.84;100.00
10946;BME280;5525;42.648;23.368;2022-09-21T02:09:35;94774.25;;;6.97;100.00
10946;BME280;5525;42.648;23.368;2022-09-21T02:12:03;94761.53;;;6.75;100.00
10946;BME280;5525;42.648;23.368;2022-09-21T02:14:32;94783.72;;;6.81;100.00
10946;BME280;5525;42.648;23.368;2022-09-21T02:17:08;94788.88;;;6.91;100.00
10946;BME280;5525;42.648;23.368;2022-09-21T02:19:45;94783.31;;;7.01;100.00
10946;BME280;5525;42.648;23.368;2022-09-21T02:22:21;94764.69;;;7.05;100.00
10946;BME280;5525;42.648;23.368;2022-09-21T02:24:56;94781.72;;;7.00;100.00
10946;BME280;5525;42.648;23.368;2022-09-21T02:27:33;94739.97;;;6.80;100.00
10946;BME280;5525;42.648;23.368;2022-09-21T02:30:07;94770.28;;;6.81;100.00
10946;BME280;5525;42.648;23.368;2022-09-21T02:32:44;94763.81;;;6.82;100.00
10946;BME280;5525;42.648;23.368;2022-09-21T02:35:22;94798.53;;;7.19;100.00
10946;BME280;5525;42.648;23.368;2022-09-21T02:38:01;94792.06;;;7.07;100.00
10946;BME280;5525;42.648;23.368;2022-09-21T02:40:34;94803.28;;;7.22;100.00
10946;BME280;5525;42.648;23.368;2022-09-21T02:43:07;94799.81;;;7.22;100.00
10946;BME280;5525;42.648;23.368;2022-09-21T02:45:40;94796.03;;;6.96;100.00
10946;BME280;5525;42.648;23.368;2022-09-21T02:48:12;94784.19;;;6.97;100.00
10946;BME280;5525;42.648;23.368;2022-09-21T02:50:44;94807.75;;;7.00;100.00
10946;BME280;5525;42.648;23.368;2022-09-21T02:53:14;94790.56;;;6.87;100.00
10946;BME280;5525;42.648;23.368;2022-09-21T02:55:43;94802.06;;;6.74;100.00
10946;BME280;5525;42.648;23.368;2022-09-21T02:58:14;94792.59;;;6.63;100.00
10946;BME280;5525;42.648;23.368;2022-09-21T03:00:44;94792.81;;;6.66;100.00
10946;BME280;5525;42.648;23.368;2022-09-21T03:03:16;94784.47;;;6.54;100.00
10946;BME280;5525;42.648;23.368;2022-09-21T03:05:44;94796.00;;;6.55;100.00
10946;BME280;5525;42.648;23.368;2022-09-21T03:08:11;94803.56;;;6.66;100.00
10946;BME280;5525;42.648;23.368;2022-09-21T03:10:38;94803.53;;;6.53;100.00
10946;BME280;5525;42.648;23.368;2022-09-21T03:13:05;94737.88;;;6.18;100.00
10946;BME280;5525;42.648;23.368;2022-09-21T03:15:33;94791.31;;;6.47;100.00
10946;BME280;5525;42.648;23.368;2022-09-21T03:18:02;94808.31;;;6.56;100.00
10946;BME280;5525;42.648;23.368;2022-09-21T03:20:30;94801.31;;;6.41;100.00
10946;BME280;5525;42.648;23.368;2022-09-21T03:22:58;94791.09;;;6.43;100.00
10946;BME280;5525;42.648;23.368;2022-09-21T03:25:25;94805.41;;;6.52;100.00
10946;BME280;5525;42.648;23.368;2022-09-21T03:27:52;94800.88;;;6.66;100.00
10946;BME280;5525;42.648;23.368;2022-09-21T03:30:19;94780.16;;;6.53;100.00
10946;BME280;5525;42.648;23.368;2022-09-21T03:32:48;94771.22;;;6.44;100.00
10946;BME280;5525;42.648;23.368;2022-09-21T03:35:17;94777.22;;;6.23;100.00
10946;BME280;5525;42.648;23.368;2022-09-21T03:37:44;94807.25;;;6.06;100.00
10946;BME280;5525;42.648;23.368;2022-09-21T03:40:11;94803.50;;;5.89;100.00
10946;BME280;5525;42.648;23.368;2022-09-21T03:42:39;94789.09;;;5.85;100.00
10946;BME280;5525;42.648;23.368;2022-09-21T03:45:08;94805.31;;;6.12;100.00
10946;BME280;5525;42.648;23.368;2022-09-21T03:47:35;94807.50;;;6.23;100.00
10946;BME280;5525;42.648;23.368;2022-09-21T03:50:02;94814.13;;;6.12;100.00
10946;BME280;5525;42.648;23.368;2022-09-21T03:52:31;94803.22;;;6.09;100.00
10946;BME280;5525;42.648;23.368;2022-09-21T03:54:58;94786.16;;;5.81;100.00
10946;BME280;5525;42.648;23.368;2022-09-21T03:57:25;94805.16;;;5.85;100.00
10946;BME280;5525;42.648;23.368;2022-09-21T03:59:51;94828.28;;;5.99;100.00
10946;BME280;5525;42.648;23.368;2022-09-21T04:02:19;94818.59;;;6.17;100.00
10946;BME280;5525;42.648;23.368;2022-09-21T04:04:46;94819.00;;;6.10;100.00
10946;BME280;5525;42.648;23.368;2022-09-21T04:07:13;94819.13;;;6.19;100.00
10946;BME280;5525;42.648;23.368;2022-09-21T04:09:42;94795.28;;;6.17;100.00
10946;BME280;5525;42.648;23.368;2022-09-21T04:12:08;94817.38;;;6.09;100.00
10946;BME280;5525;42.648;23.368;2022-09-21T04:14:35;94799.13;;;6.11;100.00
10946;BME280;5525;42.648;23.368;2022-09-21T04:17:03;94786.03;;;5.73;100.00
10946;BME280;5525;42.648;23.368;2022-09-21T04:19:30;94812.94;;;5.81;100.00
10946;BME280;5525;42.648;23.368;2022-09-21T04:21:56;94825.16;;;5.92;100.00
10946;BME280;5525;42.648;23.368;2022-09-21T04:24:23;94778.06;;;5.86;100.00
10946;BME280;5525;42.648;23.368;2022-09-21T04:26:53;94782.16;;;6.16;100.00
10946;BME280;5525;42.648;23.368;2022-09-21T04:29:21;94797.47;;;6.29;100.00
10946;BME280;5525;42.648;23.368;2022-09-21T04:31:48;94821.41;;;6.57;100.00
10946;BME280;5525;42.648;23.368;2022-09-21T04:34:15;94814.97;;;6.72;100.00
10946;BME280;5525;42.648;23.368;2022-09-21T04:36:42;94808.53;;;6.86;100.00
10946;BME280;5525;42.648;23.368;2022-09-21T04:39:10;94812.72;;;7.06;100.00
10946;BME280;5525;42.648;23.368;2022-09-21T04:41:37;94812.72;;;7.20;100.00
10946;BME280;5525;42.648;23.368;2022-09-21T04:44:05;94773.34;;;7.02;100.00
10946;BME280;5525;42.648;23.368;2022-09-21T04:46:33;94814.72;;;7.28;100.00
10946;BME280;5525;42.648;23.368;2022-09-21T04:48:59;94776.44;;;7.22;100.00
10946;BME280;5525;42.648;23.368;2022-09-21T04:51:26;94815.22;;;7.30;100.00
10946;BME280;5525;42.648;23.368;2022-09-21T04:53:53;94781.72;;;7.27;100.00
10946;BME280;5525;42.648;23.368;2022-09-21T04:56:21;94745.91;;;7.18;100.00
10946;BME280;5525;42.648;23.368;2022-09-21T04:58:48;94822.81;;;7.77;100.00
10946;BME280;5525;42.648;23.368;2022-09-21T05:01:16;94802.88;;;7.91;100.00
10946;BME280;5525;42.648;23.368;2022-09-21T05:03:43;94758.81;;;7.79;100.00
10946;BME280;5525;42.648;23.368;2022-09-21T05:06:10;94813.03;;;8.30;100.00
10946;BME280;5525;42.648;23.368;2022-09-21T05:08:38;94820.84;;;8.40;100.00
10946;BME280;5525;42.648;23.368;2022-09-21T05:11:23;94771.91;;;8.16;100.00
10946;BME280;5525;42.648;23.368;2022-09-21T05:13:50;94775.34;;;8.52;100.00
10946;BME280;5525;42.648;23.368;2022-09-21T05:16:19;94821.78;;;8.88;100.00
10946;BME280;5525;42.648;23.368;2022-09-21T05:18:46;94820.00;;;9.14;100.00
10946;BME280;5525;42.648;23.368;2022-09-21T05:21:13;94811.31;;;9.26;100.00
10946;BME280;5525;42.648;23.368;2022-09-21T05:23:40;94815.31;;;9.37;100.00
10946;BME280;5525;42.648;23.368;2022-09-21T05:26:07;94825.34;;;9.36;100.00
10946;BME280;5525;42.648;23.368;2022-09-21T05:28:35;94819.06;;;9.58;100.00
10946;BME280;5525;42.648;23.368;2022-09-21T05:31:12;94817.63;;;9.69;100.00
10946;BME280;5525;42.648;23.368;2022-09-21T05:33:50;94821.00;;;9.74;100.00
10946;BME280;5525;42.648;23.368;2022-09-21T05:36:30;94814.19;;;9.94;100.00
10946;BME280;5525;42.648;23.368;2022-09-21T05:39:00;94823.25;;;10.06;100.00
10946;BME280;5525;42.648;23.368;2022-09-21T05:41:28;94816.09;;;9.85;100.00
10946;BME280;5525;42.648;23.368;2022-09-21T05:43:56;94830.53;;;10.06;100.00
10946;BME280;5525;42.648;23.368;2022-09-21T05:46:33;94803.53;;;9.89;100.00
10946;BME280;5525;42.648;23.368;2022-09-21T05:49:05;94825.59;;;9.99;100.00
10946;BME280;5525;42.648;23.368;2022-09-21T05:51:39;94813.28;;;10.15;100.00
10946;BME280;5525;42.648;23.368;2022-09-21T05:54:16;94812.16;;;10.59;100.00
10946;BME280;5525;42.648;23.368;2022-09-21T05:56:49;94778.59;;;10.69;100.00
10946;BME280;5525;42.648;23.368;2022-09-21T05:59:37;94800.78;;;11.00;98.35
10946;BME280;5525;42.648;23.368;2022-09-21T06:02:15;94815.34;;;11.53;95.81
10946;BME280;5525;42.648;23.368;2022-09-21T06:04:46;94797.66;;;11.64;92.30
10946;BME280;5525;42.648;23.368;2022-09-21T06:07:14;94816.66;;;12.06;91.31
10946;BME280;5525;42.648;23.368;2022-09-21T06:09:41;94817.66;;;12.01;88.59
10946;BME280;5525;42.648;23.368;2022-09-21T06:12:08;94824.00;;;12.05;89.13
10946;BME280;5525;42.648;23.368;2022-09-21T06:14:36;94814.03;;;12.38;85.67
10946;BME280;5525;42.648;23.368;2022-09-21T06:17:03;94816.50;;;12.31;84.79
10946;BME280;5525;42.648;23.368;2022-09-21T06:19:30;94801.72;;;12.61;83.29
10946;BME280;5525;42.648;23.368;2022-09-21T06:21:58;94825.13;;;12.78;81.63
10946;BME280;5525;42.648;23.368;2022-09-21T06:24:25;94828.72;;;13.35;77.40
10946;BME280;5525;42.648;23.368;2022-09-21T06:26:52;94823.63;;;13.33;74.77
10946;BME280;5525;42.648;23.368;2022-09-21T06:29:19;94830.91;;;13.78;71.84
10946;BME280;5525;42.648;23.368;2022-09-21T06:31:48;94828.97;;;13.78;70.53
10946;BME280;5525;42.648;23.368;2022-09-21T06:34:15;94829.09;;;13.82;70.38
10946;BME280;5525;42.648;23.368;2022-09-21T06:36:42;94816.31;;;14.06;68.20
10946;BME280;5525;42.648;23.368;2022-09-21T06:39:11;94823.78;;;14.61;64.45
10946;BME280;5525;42.648;23.368;2022-09-21T06:41:39;94836.75;;;15.22;61.69
10946;BME280;5525;42.648;23.368;2022-09-21T06:44:05;94815.41;;;15.52;58.90
10946;BME280;5525;42.648;23.368;2022-09-21T06:46:33;94829.88;;;16.03;56.42
10946;BME280;5525;42.648;23.368;2022-09-21T06:49:00;94802.72;;;16.06;56.05
10946;BME280;5525;42.648;23.368;2022-09-21T06:51:27;94843.88;;;16.70;52.82
10946;BME280;5525;42.648;23.368;2022-09-21T06:53:55;94797.84;;;17.26;50.63
10946;BME280;5525;42.648;23.368;2022-09-21T06:56:24;94793.81;;;16.78;50.54
10946;BME280;5525;42.648;23.368;2022-09-21T06:58:51;94828.53;;;17.01;50.78
10946;BME280;5525;42.648;23.368;2022-09-21T07:01:19;94838.78;;;18.39;47.88
10946;BME280;5525;42.648;23.368;2022-09-21T07:03:49;94827.28;;;20.32;41.89
10946;BME280;5525;42.648;23.368;2022-09-21T07:06:16;94824.03;;;22.40;37.07
10946;BME280;5525;42.648;23.368;2022-09-21T07:08:44;94839.78;;;20.87;39.20
10946;BME280;5525;42.648;23.368;2022-09-21T07:11:12;94842.19;;;20.35;40.73
10946;BME280;5525;42.648;23.368;2022-09-21T07:13:40;94826.84;;;22.26;37.62
10946;BME280;5525;42.648;23.368;2022-09-21T07:16:08;94844.06;;;20.81;39.19
10946;BME280;5525;42.648;23.368;2022-09-21T07:18:35;94842.09;;;18.52;43.09
10946;BME280;5525;42.648;23.368;2022-09-21T07:21:04;94806.22;;;16.76;47.49
10946;BME280;5525;42.648;23.368;2022-09-21T07:23:31;94820.00;;;16.83;48.58
10946;BME280;5525;42.648;23.368;2022-09-21T07:26:01;94824.41;;;15.25;54.75
10946;BME280;5525;42.648;23.368;2022-09-21T07:28:28;94838.44;;;15.27;56.02
10946;BME280;5525;42.648;23.368;2022-09-21T07:30:57;94826.94;;;14.90;58.16
10946;BME280;5525;42.648;23.368;2022-09-21T07:33:24;94818.63;;;14.83;59.61
10946;BME280;5525;42.648;23.368;2022-09-21T07:35:52;94812.13;;;14.88;60.52
10946;BME280;5525;42.648;23.368;2022-09-21T07:38:21;94824.13;;;15.42;59.15
10946;BME280;5525;42.648;23.368;2022-09-21T07:40:49;94808.13;;;14.97;60.81
10946;BME280;5525;42.648;23.368;2022-09-21T07:43:16;94810.91;;;15.01;60.99
10946;BME280;5525;42.648;23.368;2022-09-21T07:45:51;94834.97;;;14.71;63.73
10946;BME280;5525;42.648;23.368;2022-09-21T07:48:19;94838.16;;;14.61;65.20
10946;BME280;5525;42.648;23.368;2022-09-21T07:50:47;94835.63;;;14.68;66.23
10946;BME280;5525;42.648;23.368;2022-09-21T07:53:14;94830.41;;;14.48;65.86
10946;BME280;5525;42.648;23.368;2022-09-21T07:55:42;94828.78;;;14.47;65.76
10946;BME280;5525;42.648;23.368;2022-09-21T07:58:09;94815.53;;;14.57;63.17
10946;BME280;5525;42.648;23.368;2022-09-21T08:00:54;94806.88;;;14.67;60.88
10946;BME280;5525;42.648;23.368;2022-09-21T08:03:22;94821.25;;;15.23;57.72
10946;BME280;5525;42.648;23.368;2022-09-21T08:05:49;94841.13;;;16.01;56.06
10946;BME280;5525;42.648;23.368;2022-09-21T08:08:17;94796.94;;;16.08;53.93
10946;BME280;5525;42.648;23.368;2022-09-21T08:10:44;94784.69;;;16.17;52.60
10946;BME280;5525;42.648;23.368;2022-09-21T08:13:11;94803.75;;;16.52;53.23
10946;BME280;5525;42.648;23.368;2022-09-21T08:15:39;94824.31;;;16.65;51.44
10946;BME280;5525;42.648;23.368;2022-09-21T08:18:06;94825.47;;;16.83;50.98
10946;BME280;5525;42.648;23.368;2022-09-21T08:20:34;94834.84;;;16.16;54.37
10946;BME280;5525;42.648;23.368;2022-09-21T08:23:02;94826.50;;;16.98;50.22
10946;BME280;5525;42.648;23.368;2022-09-21T08:25:29;94833.84;;;16.40;50.67
10946;BME280;5525;42.648;23.368;2022-09-21T08:27:57;94834.19;;;16.54;51.73
10946;BME280;5525;42.648;23.368;2022-09-21T08:30:25;94829.00;;;17.25;50.15
10946;BME280;5525;42.648;23.368;2022-09-21T08:32:55;94824.22;;;17.83;48.09
10946;BME280;5525;42.648;23.368;2022-09-21T08:35:22;94832.16;;;18.66;45.84
10946;BME280;5525;42.648;23.368;2022-09-21T08:37:53;94825.06;;;18.35;46.10
10946;BME280;5525;42.648;23.368;2022-09-21T08:40:20;94817.31;;;18.67;45.23
10946;BME280;5525;42.648;23.368;2022-09-21T08:42:55;94823.94;;;18.14;46.66
10946;BME280;5525;42.648;23.368;2022-09-21T08:45:28;94775.50;;;19.00;43.74
10946;BME280;5525;42.648;23.368;2022-09-21T08:47:59;94816.31;;;18.79;44.73
10946;BME280;5525;42.648;23.368;2022-09-21T08:50:33;94806.34;;;19.30;43.50
10946;BME280;5525;42.648;23.368;2022-09-21T08:53:06;94820.72;;;18.34;45.01
10946;BME280;5525;42.648;23.368;2022-09-21T08:55:33;94821.03;;;18.82;44.20
10946;BME280;5525;42.648;23.368;2022-09-21T08:58:00;94799.97;;;18.30;45.42
10946;BME280;5525;42.648;23.368;2022-09-21T09:00:30;94751.78;;;17.92;45.05
10946;BME280;5525;42.648;23.368;2022-09-21T09:03:17;94808.50;;;17.54;46.62
10946;BME280;5525;42.648;23.368;2022-09-21T09:05:50;94809.75;;;18.05;45.18
10946;BME280;5525;42.648;23.368;2022-09-21T09:08:44;94809.34;;;18.29;44.17
10946;BME280;5525;42.648;23.368;2022-09-21T09:11:27;94790.06;;;18.74;43.12
10946;BME280;5525;42.648;23.368;2022-09-21T09:14:06;94795.56;;;19.11;42.61
10946;BME280;5525;42.648;23.368;2022-09-21T09:16:49;94761.28;;;19.60;39.96
10946;BME280;5525;42.648;23.368;2022-09-21T09:19:22;94746.09;;;19.66;39.57
10946;BME280;5525;42.648;23.368;2022-09-21T09:21:54;94795.84;;;20.16;38.15
10946;BME280;5525;42.648;23.368;2022-09-21T09:24:30;94786.81;;;19.31;39.99
10946;BME280;5525;42.648;23.368;2022-09-21T09:27:02;94775.72;;;18.28;42.01
10946;BME280;5525;42.648;23.368;2022-09-21T09:29:36;94792.81;;;18.74;42.38
10946;BME280;5525;42.648;23.368;2022-09-21T09:32:12;94753.78;;;18.81;42.49
10946;BME280;5525;42.648;23.368;2022-09-21T09:34:42;94765.88;;;18.47;42.55
10946;BME280;5525;42.648;23.368;2022-09-21T09:37:12;94768.94;;;17.67;44.99
10946;BME280;5525;42.648;23.368;2022-09-21T09:39:42;94781.22;;;17.35;46.16
10946;BME280;5525;42.648;23.368;2022-09-21T09:42:24;94767.78;;;17.45;45.22
10946;BME280;5525;42.648;23.368;2022-09-21T09:45:06;94730.59;;;17.60;44.33
10946;BME280;5525;42.648;23.368;2022-09-21T09:47:45;94771.91;;;17.58;44.06
10946;BME280;5525;42.648;23.368;2022-09-21T09:50:21;94704.69;;;18.02;42.46
10946;BME280;5525;42.648;23.368;2022-09-21T09:52:52;94762.97;;;19.32;39.98
10946;BME280;5525;42.648;23.368;2022-09-21T09:55:24;94754.91;;;19.46;39.14
10946;BME280;5525;42.648;23.368;2022-09-21T09:57:55;94739.94;;;19.80;38.50
10946;BME280;5525;42.648;23.368;2022-09-21T10:00:23;94765.28;;;19.30;39.79
10946;BME280;5525;42.648;23.368;2022-09-21T10:02:51;94754.34;;;19.30;38.34
10946;BME280;5525;42.648;23.368;2022-09-21T10:05:23;94739.69;;;20.64;36.67
10946;BME280;5525;42.648;23.368;2022-09-21T10:07:51;94736.03;;;22.30;34.57
10946;BME280;5525;42.648;23.368;2022-09-21T10:10:35;94738.38;;;23.42;32.01
10946;BME280;5525;42.648;23.368;2022-09-21T10:13:17;94728.19;;;24.34;30.12
10946;BME280;5525;42.648;23.368;2022-09-21T10:15:50;94740.44;;;23.24;31.60
10946;BME280;5525;42.648;23.368;2022-09-21T10:18:20;94737.72;;;23.17;31.63
10946;BME280;5525;42.648;23.368;2022-09-21T10:21:06;94733.28;;;22.33;32.67
10946;BME280;5525;42.648;23.368;2022-09-21T10:23:35;94691.94;;;22.65;31.46
10946;BME280;5525;42.648;23.368;2022-09-21T10:26:07;94722.22;;;23.44;30.51
10946;BME280;5525;42.648;23.368;2022-09-21T10:28:35;94727.19;;;24.55;29.50
10946;BME280;5525;42.648;23.368;2022-09-21T10:31:16;94704.16;;;22.57;31.79
10946;BME280;5525;42.648;23.368;2022-09-21T10:33:50;94722.31;;;21.49;33.24
10946;BME280;5525;42.648;23.368;2022-09-21T10:36:31;94734.53;;;21.83;33.17
10946;BME280;5525;42.648;23.368;2022-09-21T10:39:18;94722.72;;;24.31;29.70
10946;BME280;5525;42.648;23.368;2022-09-21T10:41:53;94718.47;;;25.24;27.83
10946;BME280;5525;42.648;23.368;2022-09-21T10:44:25;94722.72;;;26.34;26.68
10946;BME280;5525;42.648;23.368;2022-09-21T10:46:54;94727.75;;;25.40;26.98
10946;BME280;5525;42.648;23.368;2022-09-21T10:49:24;94704.75;;;25.73;26.08
10946;BME280;5525;42.648;23.368;2022-09-21T10:51:55;94720.25;;;25.41;27.03
10946;BME280;5525;42.648;23.368;2022-09-21T10:54:26;94722.16;;;25.97;26.24
10946;BME280;5525;42.648;23.368;2022-09-21T10:56:59;94704.13;;;27.17;24.73
10946;BME280;5525;42.648;23.368;2022-09-21T10:59:28;94694.56;;;28.21;23.09
10946;BME280;5525;42.648;23.368;2022-09-21T11:01:57;94706.88;;;25.89;25.09
10946;BME280;5525;42.648;23.368;2022-09-21T11:04:38;94704.41;;;26.64;25.23
10946;BME280;5525;42.648;23.368;2022-09-21T11:07:15;94702.84;;;27.02;24.13
10946;BME280;5525;42.648;23.368;2022-09-21T11:09:49;94693.84;;;26.12;25.31
10946;BME280;5525;42.648;23.368;2022-09-21T11:12:43;94706.75;;;27.59;23.37
10946;BME280;5525;42.648;23.368;2022-09-21T11:15:24;94707.13;;;25.98;25.37
10946;BME280;5525;42.648;23.368;2022-09-21T11:18:03;94696.41;;;27.44;23.92
10946;BME280;5525;42.648;23.368;2022-09-21T11:20:40;94704.06;;;27.56;23.06
10946;BME280;5525;42.648;23.368;2022-09-21T11:23:19;94683.38;;;26.23;24.08
10946;BME280;5525;42.648;23.368;2022-09-21T11:25:51;94687.59;;;23.91;26.78
10946;BME280;5525;42.648;23.368;2022-09-21T11:28:25;94686.56;;;21.21;30.13
10946;BME280;5525;42.648;23.368;2022-09-21T11:36:55;94693.50;;;23.42;28.46
10946;BME280;5525;42.648;23.368;2022-09-21T11:39:34;94675.78;;;22.67;28.64
10946;BME280;5525;42.648;23.368;2022-09-21T11:42:16;94679.41;;;19.48;33.32
10946;BME280;5525;42.648;23.368;2022-09-21T11:44:52;94697.75;;;18.68;35.61
10946;BME280;5525;42.648;23.368;2022-09-21T11:47:45;94710.16;;;19.78;32.60
10946;BME280;5525;42.648;23.368;2022-09-21T11:50:34;94691.06;;;17.28;36.49
10946;BME280;5525;42.648;23.368;2022-09-21T11:53:24;94670.34;;;16.59;37.62
10946;BME280;5525;42.648;23.368;2022-09-21T11:56:17;94666.38;;;18.95;34.76
10946;BME280;5525;42.648;23.368;2022-09-21T11:59:00;94714.00;;;17.27;42.23
10946;BME280;5525;42.648;23.368;2022-09-21T12:01:43;94663.78;;;15.68;47.18
10946;BME280;5525;42.648;23.368;2022-09-21T12:04:28;94707.34;;;15.37;49.87
10946;BME280;5525;42.648;23.368;2022-09-21T12:07:06;94669.72;;;14.92;51.09
10946;BME280;5525;42.648;23.368;2022-09-21T12:10:00;94719.00;;;15.06;51.23
10946;BME280;5525;42.648;23.368;2022-09-21T12:12:35;94733.91;;;14.97;52.55
10946;BME280;5525;42.648;23.368;2022-09-21T12:15:08;94745.19;;;14.68;55.92
10946;BME280;5525;42.648;23.368;2022-09-21T12:17:43;94742.31;;;14.49;57.90
10946;BME280;5525;42.648;23.368;2022-09-21T12:20:18;94732.47;;;14.72;56.02
10946;BME280;5525;42.648;23.368;2022-09-21T12:22:50;94733.31;;;15.35;52.36
10946;BME280;5525;42.648;23.368;2022-09-21T12:25:22;94707.16;;;15.46;50.86
10946;BME280;5525;42.648;23.368;2022-09-21T12:27:53;94720.34;;;15.28;51.80
10946;BME280;5525;42.648;23.368;2022-09-21T12:30:24;94732.94;;;16.17;51.61
10946;BME280;5525;42.648;23.368;2022-09-21T12:32:56;94730.78;;;16.26;50.46
10946;BME280;5525;42.648;23.368;2022-09-21T12:35:31;94704.63;;;15.06;54.72
10946;BME280;5525;42.648;23.368;2022-09-21T12:38:05;94725.56;;;15.05;53.28
10946;BME280;5525;42.648;23.368;2022-09-21T12:40:37;94726.34;;;14.90;54.30
10946;BME280;5525;42.648;23.368;2022-09-21T12:43:16;94729.97;;;15.10;54.26
10946;BME280;5525;42.648;23.368;2022-09-21T12:45:51;94724.06;;;14.77;55.61
10946;BME280;5525;42.648;23.368;2022-09-21T12:48:29;94737.97;;;14.32;58.54
10946;BME280;5525;42.648;23.368;2022-09-21T12:51:00;94734.53;;;13.96;61.95
10946;BME280;5525;42.648;23.368;2022-09-21T12:53:31;94696.91;;;13.82;60.89
10946;BME280;5525;42.648;23.368;2022-09-21T12:56:04;94726.47;;;14.11;60.69
10946;BME280;5525;42.648;23.368;2022-09-21T12:58:45;94724.41;;;14.20;58.77
10946;BME280;5525;42.648;23.368;2022-09-21T13:01:24;94722.38;;;14.17;58.56
10946;BME280;5525;42.648;23.368;2022-09-21T13:04:03;94720.94;;;14.08;58.82
10946;BME280;5525;42.648;23.368;2022-09-21T13:06:49;94726.81;;;13.98;61.43
10946;BME280;5525;42.648;23.368;2022-09-21T13:09:20;94643.34;;;13.67;60.70
10946;BME280;5525;42.648;23.368;2022-09-21T13:11:51;94681.50;;;13.86;60.50
10946;BME280;5525;42.648;23.368;2022-09-21T13:14:22;94692.84;;;14.16;57.97
10946;BME280;5525;42.648;23.368;2022-09-21T13:16:55;94720.69;;;15.11;54.53
10946;BME280;5525;42.648;23.368;2022-09-21T13:19:26;94720.22;;;15.09;53.51
10946;BME280;5525;42.648;23.368;2022-09-21T13:22:11;94703.47;;;15.07;53.76
10946;BME280;5525;42.648;23.368;2022-09-21T13:24:46;94717.84;;;14.92;54.93
10946;BME280;5525;42.648;23.368;2022-09-21T13:27:55;94680.66;;;14.80;54.84
10946;BME280;5525;42.648;23.368;2022-09-21T13:30:31;94702.38;;;14.65;55.95
10946;BME280;5525;42.648;23.368;2022-09-21T13:32:59;94711.72;;;14.95;54.09